sensor_id;sensor_type;location;lat;lon;timestamp;temperature;humidity
56300;DHT22;42209;6.376;-10.782;2022-12-18T00:03:55;23.10;63.90
56300;DHT22;42209;6.376;-10.782;2022-12-18T00:06:25;22.80;57.50
56300;DHT22;42209;6.376;-10.782;2022-12-18T00:08:56;22.40;55.30
56300;DHT22;42209;6.376;-10.782;2022-12-18T00:11:27;22.10;54.50
56300;DHT22;42209;6.376;-10.782;2022-12-18T00:13:58;22.00;59.10
56300;DHT22;42209;6.376;-10.782;2022-12-18T00:16:29;22.40;63.70
56300;DHT22;42209;6.376;-10.782;2022-12-18T00:18:58;22.70;66.30
56300;DHT22;42209;6.376;-10.782;2022-12-18T00:21:28;23.00;67.80
56300;DHT22;42209;6.376;-10.782;2022-12-18T00:23:58;23.00;61.20
56300;DHT22;42209;6.376;-10.782;2022-12-18T00:26:29;22.60;57.30
56300;DHT22;42209;6.376;-10.782;2022-12-18T00:29:03;22.30;55.80
56300;DHT22;42209;6.376;-10.782;2022-12-18T00:31:32;22.00;60.20
56300;DHT22;42209;6.376;-10.782;2022-12-18T00:34:01;22.40;65.20
56300;DHT22;42209;6.376;-10.782;2022-12-18T00:36:33;22.70;67.50
56300;DHT22;42209;6.376;-10.782;2022-12-18T00:39:04;23.00;69.60
56300;DHT22;42209;6.376;-10.782;2022-12-18T00:41:33;23.00;61.90
56300;DHT22;42209;6.376;-10.782;2022-12-18T00:44:02;22.60;58.00
56300;DHT22;42209;6.376;-10.782;2022-12-18T00:46:31;22.20;56.80
56300;DHT22;42209;6.376;-10.782;2022-12-18T00:49:00;21.90;55.80
56300;DHT22;42209;6.376;-10.782;2022-12-18T00:51:28;22.00;62.70
56300;DHT22;42209;6.376;-10.782;2022-12-18T00:53:56;22.50;66.60
56300;DHT22;42209;6.376;-10.782;2022-12-18T00:56:25;22.80;68.70
56300;DHT22;42209;6.376;-10.782;2022-12-18T00:58:53;23.00;69.90
56300;DHT22;42209;6.376;-10.782;2022-12-18T01:01:22;23.00;62.70
56300;DHT22;42209;6.376;-10.782;2022-12-18T01:03:50;22.50;59.10
56300;DHT22;42209;6.376;-10.782;2022-12-18T01:06:19;22.10;57.20
56300;DHT22;42209;6.376;-10.782;2022-12-18T01:08:50;21.80;56.60
56300;DHT22;42209;6.376;-10.782;2022-12-18T01:11:20;22.00;64.20
56300;DHT22;42209;6.376;-10.782;2022-12-18T01:13:49;22.50;67.20
56300;DHT22;42209;6.376;-10.782;2022-12-18T01:16:17;22.80;69.40
56300;DHT22;42209;6.376;-10.782;2022-12-18T01:18:46;23.00;70.30
56300;DHT22;42209;6.376;-10.782;2022-12-18T01:21:16;22.90;61.90
56300;DHT22;42209;6.376;-10.782;2022-12-18T01:23:44;22.40;58.90
56300;DHT22;42209;6.376;-10.782;2022-12-18T01:26:16;22.00;57.30
56300;DHT22;42209;6.376;-10.782;2022-12-18T01:28:45;21.80;57.90
56300;DHT22;42209;6.376;-10.782;2022-12-18T01:31:21;22.10;64.70
56300;DHT22;42209;6.376;-10.782;2022-12-18T01:33:51;22.60;67.30
56300;DHT22;42209;6.376;-10.782;2022-12-18T01:36:25;22.80;69.80
56300;DHT22;42209;6.376;-10.782;2022-12-18T01:38:54;23.00;67.70
56300;DHT22;42209;6.376;-10.782;2022-12-18T01:41:29;22.70;60.80
56300;DHT22;42209;6.376;-10.782;2022-12-18T01:43:58;22.30;58.40
56300;DHT22;42209;6.376;-10.782;2022-12-18T01:46:27;22.00;57.80
56300;DHT22;42209;6.376;-10.782;2022-12-18T01:49:00;22.20;64.90
56300;DHT22;42209;6.376;-10.782;2022-12-18T01:51:30;22.50;68.30
56300;DHT22;42209;6.376;-10.782;2022-12-18T01:53:59;22.80;70.30
56300;DHT22;42209;6.376;-10.782;2022-12-18T01:56:27;23.00;66.20
56300;DHT22;42209;6.376;-10.782;2022-12-18T01:59:02;22.60;60.80
56300;DHT22;42209;6.376;-10.782;2022-12-18T02:01:32;22.20;58.80
56300;DHT22;42209;6.376;-10.782;2022-12-18T02:04:18;21.90;62.20
56300;DHT22;42209;6.376;-10.782;2022-12-18T02:06:53;22.30;66.80
56300;DHT22;42209;6.376;-10.782;2022-12-18T02:09:41;22.70;69.60
56300;DHT22;42209;6.376;-10.782;2022-12-18T02:12:18;23.00;71.30
56300;DHT22;42209;6.376;-10.782;2022-12-18T02:17:36;22.50;60.70
56300;DHT22;42209;6.376;-10.782;2022-12-18T02:20:34;22.10;59.80
56300;DHT22;42209;6.376;-10.782;2022-12-18T02:29:03;23.00;72.50
56300;DHT22;42209;6.376;-10.782;2022-12-18T02:31:54;23.00;65.10
56300;DHT22;42209;6.376;-10.782;2022-12-18T02:34:33;22.50;61.20
56300;DHT22;42209;6.376;-10.782;2022-12-18T02:37:09;22.10;59.80
56300;DHT22;42209;6.376;-10.782;2022-12-18T02:39:41;22.20;67.10
56300;DHT22;42209;6.376;-10.782;2022-12-18T02:42:13;22.60;70.30
56300;DHT22;42209;6.376;-10.782;2022-12-18T02:44:49;22.90;72.50
56300;DHT22;42209;6.376;-10.782;2022-12-18T02:47:29;23.00;73.30
56300;DHT22;42209;6.376;-10.782;2022-12-18T02:53:17;22.40;61.50
56300;DHT22;42209;6.376;-10.782;2022-12-18T03:06:50;23.00;66.50
56300;DHT22;42209;6.376;-10.782;2022-12-18T03:09:26;22.60;61.90
56300;DHT22;42209;6.376;-10.782;2022-12-18T03:12:02;22.10;60.30
56300;DHT22;42209;6.376;-10.782;2022-12-18T03:14:34;22.10;66.50
56300;DHT22;42209;6.376;-10.782;2022-12-18T03:17:10;22.40;69.70
56300;DHT22;42209;6.376;-10.782;2022-12-18T03:19:42;22.80;72.30
56300;DHT22;42209;6.376;-10.782;2022-12-18T03:22:12;23.00;73.60
56300;DHT22;42209;6.376;-10.782;2022-12-18T03:24:49;23.00;66.50
56300;DHT22;42209;6.376;-10.782;2022-12-18T03:27:20;22.50;61.90
56300;DHT22;42209;6.376;-10.782;2022-12-18T03:30:05;22.10;60.40
56300;DHT22;42209;6.376;-10.782;2022-12-18T03:33:07;22.10;67.00
56300;DHT22;42209;6.376;-10.782;2022-12-18T03:35:41;22.50;70.20
56300;DHT22;42209;6.376;-10.782;2022-12-18T03:38:12;22.80;73.40
56300;DHT22;42209;6.376;-10.782;2022-12-18T03:46:41;22.20;60.70
56300;DHT22;42209;6.376;-10.782;2022-12-18T03:49:23;22.10;66.80
56300;DHT22;42209;6.376;-10.782;2022-12-18T03:52:09;22.50;70.40
56300;DHT22;42209;6.376;-10.782;2022-12-18T03:54:41;22.80;73.00
56300;DHT22;42209;6.376;-10.782;2022-12-18T03:57:18;23.00;74.50
56300;DHT22;42209;6.376;-10.782;2022-12-18T03:59:54;22.90;66.40
56300;DHT22;42209;6.376;-10.782;2022-12-18T04:02:30;22.40;62.30
56300;DHT22;42209;6.376;-10.782;2022-12-18T04:05:03;22.00;60.70
56300;DHT22;42209;6.376;-10.782;2022-12-18T04:07:34;22.20;68.20
56300;DHT22;42209;6.376;-10.782;2022-12-18T04:10:06;22.50;71.40
56300;DHT22;42209;6.376;-10.782;2022-12-18T04:12:38;22.80;73.40
56300;DHT22;42209;6.376;-10.782;2022-12-18T04:15:12;22.90;69.90
56300;DHT22;42209;6.376;-10.782;2022-12-18T04:17:48;22.60;63.30
56300;DHT22;42209;6.376;-10.782;2022-12-18T04:20:20;22.10;60.90
56300;DHT22;42209;6.376;-10.782;2022-12-18T04:22:48;22.00;66.00
56300;DHT22;42209;6.376;-10.782;2022-12-18T04:25:19;22.30;70.00
56300;DHT22;42209;6.376;-10.782;2022-12-18T04:28:01;22.60;72.30
56300;DHT22;42209;6.376;-10.782;2022-12-18T04:30:30;22.80;74.00
56300;DHT22;42209;6.376;-10.782;2022-12-18T04:32:58;22.80;65.90
56300;DHT22;42209;6.376;-10.782;2022-12-18T04:35:29;22.40;62.10
56300;DHT22;42209;6.376;-10.782;2022-12-18T04:37:58;21.90;60.60
56300;DHT22;42209;6.376;-10.782;2022-12-18T04:40:27;22.10;68.30
56300;DHT22;42209;6.376;-10.782;2022-12-18T04:42:55;22.40;71.30
56300;DHT22;42209;6.376;-10.782;2022-12-18T04:45:23;22.70;73.00
56300;DHT22;42209;6.376;-10.782;2022-12-18T04:47:51;22.90;74.70
56300;DHT22;42209;6.376;-10.782;2022-12-18T04:50:20;22.80;65.90
56300;DHT22;42209;6.376;-10.782;2022-12-18T04:52:48;22.40;62.40
56300;DHT22;42209;6.376;-10.782;2022-12-18T04:55:16;22.00;63.10
56300;DHT22;42209;6.376;-10.782;2022-12-18T04:57:45;22.20;69.40
56300;DHT22;42209;6.376;-10.782;2022-12-18T05:00:13;22.50;72.20
56300;DHT22;42209;6.376;-10.782;2022-12-18T05:02:42;22.70;73.70
56300;DHT22;42209;6.376;-10.782;2022-12-18T05:05:10;23.00;75.50
56300;DHT22;42209;6.376;-10.782;2022-12-18T05:07:38;22.90;68.80
56300;DHT22;42209;6.376;-10.782;2022-12-18T05:10:08;22.60;63.50
56300;DHT22;42209;6.376;-10.782;2022-12-18T05:12:37;22.10;61.90
56300;DHT22;42209;6.376;-10.782;2022-12-18T05:15:05;22.00;68.20
56300;DHT22;42209;6.376;-10.782;2022-12-18T05:17:34;22.40;71.40
56300;DHT22;42209;6.376;-10.782;2022-12-18T05:20:02;22.70;73.50
56300;DHT22;42209;6.376;-10.782;2022-12-18T05:22:31;22.90;75.30
56300;DHT22;42209;6.376;-10.782;2022-12-18T05:24:59;23.00;76.00
56300;DHT22;42209;6.376;-10.782;2022-12-18T05:27:28;22.90;67.90
56300;DHT22;42209;6.376;-10.782;2022-12-18T05:29:56;22.40;64.00
56300;DHT22;42209;6.376;-10.782;2022-12-18T05:32:24;22.00;62.40
56300;DHT22;42209;6.376;-10.782;2022-12-18T05:34:53;22.00;69.10
56300;DHT22;42209;6.376;-10.782;2022-12-18T05:37:21;22.40;72.40
56300;DHT22;42209;6.376;-10.782;2022-12-18T05:39:49;22.60;74.20
56300;DHT22;42209;6.376;-10.782;2022-12-18T05:42:18;22.80;76.20
56300;DHT22;42209;6.376;-10.782;2022-12-18T05:44:46;23.00;72.80
56300;DHT22;42209;6.376;-10.782;2022-12-18T05:47:15;22.70;65.70
56300;DHT22;42209;6.376;-10.782;2022-12-18T05:49:43;22.20;63.10
56300;DHT22;42209;6.376;-10.782;2022-12-18T05:52:11;22.00;68.50
56300;DHT22;42209;6.376;-10.782;2022-12-18T05:54:40;22.30;72.20
56300;DHT22;42209;6.376;-10.782;2022-12-18T05:57:08;22.60;74.60
56300;DHT22;42209;6.376;-10.782;2022-12-18T05:59:36;22.80;76.20
56300;DHT22;42209;6.376;-10.782;2022-12-18T06:02:05;22.90;73.90
56300;DHT22;42209;6.376;-10.782;2022-12-18T06:04:33;22.70;66.20
56300;DHT22;42209;6.376;-10.782;2022-12-18T06:07:02;22.20;63.00
56300;DHT22;42209;6.376;-10.782;2022-12-18T06:09:30;22.00;67.40
56300;DHT22;42209;6.376;-10.782;2022-12-18T06:11:58;22.30;71.60
56300;DHT22;42209;6.376;-10.782;2022-12-18T06:14:27;22.50;74.00
56300;DHT22;42209;6.376;-10.782;2022-12-18T06:16:55;22.80;75.90
56300;DHT22;42209;6.376;-10.782;2022-12-18T06:19:23;23.00;73.80
56300;DHT22;42209;6.376;-10.782;2022-12-18T06:21:52;22.60;65.90
56300;DHT22;42209;6.376;-10.782;2022-12-18T06:24:20;22.20;63.00
56300;DHT22;42209;6.376;-10.782;2022-12-18T06:26:48;22.00;67.90
56300;DHT22;42209;6.376;-10.782;2022-12-18T06:29:17;22.30;71.50
56300;DHT22;42209;6.376;-10.782;2022-12-18T06:31:45;22.60;74.40
56300;DHT22;42209;6.376;-10.782;2022-12-18T06:34:13;22.80;76.20
56300;DHT22;42209;6.376;-10.782;2022-12-18T06:36:42;22.90;77.10
56300;DHT22;42209;6.376;-10.782;2022-12-18T06:39:10;23.00;73.60
56300;DHT22;42209;6.376;-10.782;2022-12-18T06:41:38;22.60;66.20
56300;DHT22;42209;6.376;-10.782;2022-12-18T06:44:07;22.20;64.60
56300;DHT22;42209;6.376;-10.782;2022-12-18T06:46:37;22.10;70.90
56300;DHT22;42209;6.376;-10.782;2022-12-18T06:49:05;22.40;73.70
56300;DHT22;42209;6.376;-10.782;2022-12-18T06:51:34;22.60;76.70
56300;DHT22;42209;6.376;-10.782;2022-12-18T06:54:03;22.80;77.80
56300;DHT22;42209;6.376;-10.782;2022-12-18T06:56:31;22.80;70.00
56300;DHT22;42209;6.376;-10.782;2022-12-18T06:58:59;22.40;65.20
56300;DHT22;42209;6.376;-10.782;2022-12-18T07:01:28;21.90;65.70
56300;DHT22;42209;6.376;-10.782;2022-12-18T07:03:57;22.10;71.50
56300;DHT22;42209;6.376;-10.782;2022-12-18T07:06:26;22.40;74.20
56300;DHT22;42209;6.376;-10.782;2022-12-18T07:08:55;22.70;76.90
56300;DHT22;42209;6.376;-10.782;2022-12-18T07:11:24;22.80;77.80
56300;DHT22;42209;6.376;-10.782;2022-12-18T07:13:52;22.90;72.60
56300;DHT22;42209;6.376;-10.782;2022-12-18T07:16:21;22.50;68.70
56300;DHT22;42209;6.376;-10.782;2022-12-18T07:18:54;22.10;66.10
56300;DHT22;42209;6.376;-10.782;2022-12-18T07:21:23;22.00;72.30
56300;DHT22;42209;6.376;-10.782;2022-12-18T07:23:52;22.40;76.30
56300;DHT22;42209;6.376;-10.782;2022-12-18T07:26:21;22.70;78.60
56300;DHT22;42209;6.376;-10.782;2022-12-18T07:28:50;22.90;78.60
56300;DHT22;42209;6.376;-10.782;2022-12-18T07:31:22;22.70;69.70
56300;DHT22;42209;6.376;-10.782;2022-12-18T07:33:51;22.30;66.10
56300;DHT22;42209;6.376;-10.782;2022-12-18T07:36:20;22.00;69.10
56300;DHT22;42209;6.376;-10.782;2022-12-18T07:38:48;22.30;73.50
56300;DHT22;42209;6.376;-10.782;2022-12-18T07:41:17;22.50;75.40
56300;DHT22;42209;6.376;-10.782;2022-12-18T07:43:46;22.70;77.10
56300;DHT22;42209;6.376;-10.782;2022-12-18T07:46:15;22.90;78.40
56300;DHT22;42209;6.376;-10.782;2022-12-18T07:48:45;23.00;73.50
56300;DHT22;42209;6.376;-10.782;2022-12-18T07:51:17;22.50;66.90
56300;DHT22;42209;6.376;-10.782;2022-12-18T07:53:46;22.00;65.50
56300;DHT22;42209;6.376;-10.782;2022-12-18T07:56:19;22.20;72.40
56300;DHT22;42209;6.376;-10.782;2022-12-18T07:58:58;22.40;75.10
56300;DHT22;42209;6.376;-10.782;2022-12-18T08:01:30;22.70;77.00
56300;DHT22;42209;6.376;-10.782;2022-12-18T08:03:58;22.90;77.90
56300;DHT22;42209;6.376;-10.782;2022-12-18T08:06:27;22.70;68.70
56300;DHT22;42209;6.376;-10.782;2022-12-18T08:08:56;22.20;65.20
56300;DHT22;42209;6.376;-10.782;2022-12-18T08:11:26;21.90;68.30
56300;DHT22;42209;6.376;-10.782;2022-12-18T08:13:55;22.20;72.60
56300;DHT22;42209;6.376;-10.782;2022-12-18T08:16:24;22.50;75.20
56300;DHT22;42209;6.376;-10.782;2022-12-18T08:18:53;22.70;76.70
56300;DHT22;42209;6.376;-10.782;2022-12-18T08:21:25;22.80;77.90
56300;DHT22;42209;6.376;-10.782;2022-12-18T08:23:56;22.80;70.60
56300;DHT22;42209;6.376;-10.782;2022-12-18T08:26:27;22.40;65.30
56300;DHT22;42209;6.376;-10.782;2022-12-18T08:28:58;21.90;65.30
56300;DHT22;42209;6.376;-10.782;2022-12-18T08:31:28;22.00;72.10
56300;DHT22;42209;6.376;-10.782;2022-12-18T08:33:58;22.40;74.60
56300;DHT22;42209;6.376;-10.782;2022-12-18T08:36:26;22.60;76.30
56300;DHT22;42209;6.376;-10.782;2022-12-18T08:38:56;22.80;77.90
56300;DHT22;42209;6.376;-10.782;2022-12-18T08:41:25;22.80;71.20
56300;DHT22;42209;6.376;-10.782;2022-12-18T08:43:53;22.40;65.80
56300;DHT22;42209;6.376;-10.782;2022-12-18T08:46:23;22.00;66.40
56300;DHT22;42209;6.376;-10.782;2022-12-18T08:48:53;22.10;72.20
56300;DHT22;42209;6.376;-10.782;2022-12-18T08:51:21;22.40;75.10
56300;DHT22;42209;6.376;-10.782;2022-12-18T08:53:50;22.60;76.80
56300;DHT22;42209;6.376;-10.782;2022-12-18T08:56:18;22.80;78.10
56300;DHT22;42209;6.376;-10.782;2022-12-18T08:58:47;22.90;73.00
56300;DHT22;42209;6.376;-10.782;2022-12-18T09:01:15;22.50;66.80
56300;DHT22;42209;6.376;-10.782;2022-12-18T09:03:44;22.00;64.50
56300;DHT22;42209;6.376;-10.782;2022-12-18T09:06:16;22.00;70.70
56300;DHT22;42209;6.376;-10.782;2022-12-18T09:08:45;22.30;73.70
56300;DHT22;42209;6.376;-10.782;2022-12-18T09:11:23;22.50;76.00
56300;DHT22;42209;6.376;-10.782;2022-12-18T09:13:53;22.70;77.50
56300;DHT22;42209;6.376;-10.782;2022-12-18T09:16:24;22.80;72.30
56300;DHT22;42209;6.376;-10.782;2022-12-18T09:18:59;22.40;67.00
56300;DHT22;42209;6.376;-10.782;2022-12-18T09:21:33;22.00;64.40
56300;DHT22;42209;6.376;-10.782;2022-12-18T09:24:04;22.10;71.60
56300;DHT22;42209;6.376;-10.782;2022-12-18T09:26:36;22.40;74.70
56300;DHT22;42209;6.376;-10.782;2022-12-18T09:29:05;22.60;76.60
56300;DHT22;42209;6.376;-10.782;2022-12-18T09:31:34;22.80;78.00
56300;DHT22;42209;6.376;-10.782;2022-12-18T09:34:02;22.80;71.00
56300;DHT22;42209;6.376;-10.782;2022-12-18T09:36:31;22.40;66.10
56300;DHT22;42209;6.376;-10.782;2022-12-18T09:38:59;22.00;64.20
56300;DHT22;42209;6.376;-10.782;2022-12-18T09:44:26;22.30;74.40
56300;DHT22;42209;6.376;-10.782;2022-12-18T09:49:48;22.80;77.80
56300;DHT22;42209;6.376;-10.782;2022-12-18T09:52:27;22.70;70.50
56300;DHT22;42209;6.376;-10.782;2022-12-18T09:57:42;21.90;67.00
56300;DHT22;42209;6.376;-10.782;2022-12-18T10:00:31;22.20;72.80
56300;DHT22;42209;6.376;-10.782;2022-12-18T10:03:03;22.50;75.40
56300;DHT22;42209;6.376;-10.782;2022-12-18T10:06:02;22.70;77.40
56300;DHT22;42209;6.376;-10.782;2022-12-18T10:16:59;22.00;71.00
56300;DHT22;42209;6.376;-10.782;2022-12-18T10:19:57;22.40;74.70
56300;DHT22;42209;6.376;-10.782;2022-12-18T10:25:22;22.80;73.50
56300;DHT22;42209;6.376;-10.782;2022-12-18T10:27:56;22.40;67.10
56300;DHT22;42209;6.376;-10.782;2022-12-18T10:30:26;22.00;64.40
56300;DHT22;42209;6.376;-10.782;2022-12-18T10:32:58;22.00;70.10
56300;DHT22;42209;6.376;-10.782;2022-12-18T10:35:28;22.30;73.40
56300;DHT22;42209;6.376;-10.782;2022-12-18T10:38:02;22.50;75.90
56300;DHT22;42209;6.376;-10.782;2022-12-18T10:40:31;22.70;77.30
56300;DHT22;42209;6.376;-10.782;2022-12-18T10:43:36;22.80;78.30
56300;DHT22;42209;6.376;-10.782;2022-12-18T10:54:13;22.00;72.00
56300;DHT22;42209;6.376;-10.782;2022-12-18T10:56:44;22.40;74.90
56300;DHT22;42209;6.376;-10.782;2022-12-18T10:59:14;22.70;77.00
56300;DHT22;42209;6.376;-10.782;2022-12-18T11:01:53;22.80;77.90
56300;DHT22;42209;6.376;-10.782;2022-12-18T11:04:25;22.70;69.90
56300;DHT22;42209;6.376;-10.782;2022-12-18T11:07:03;22.30;66.20
56300;DHT22;42209;6.376;-10.782;2022-12-18T11:09:34;21.90;64.10
56300;DHT22;42209;6.376;-10.782;2022-12-18T11:12:23;21.80;69.70
56300;DHT22;42209;6.376;-10.782;2022-12-18T11:14:52;22.20;73.50
56300;DHT22;42209;6.376;-10.782;2022-12-18T11:17:34;22.50;75.50
56300;DHT22;42209;6.376;-10.782;2022-12-18T11:20:54;22.70;77.20
56300;DHT22;42209;6.376;-10.782;2022-12-18T11:22:58;22.70;69.90
56300;DHT22;42209;6.376;-10.782;2022-12-18T11:25:29;22.30;65.40
56300;DHT22;42209;6.376;-10.782;2022-12-18T11:28:25;21.90;64.00
56300;DHT22;42209;6.376;-10.782;2022-12-18T11:31:32;21.90;70.30
56300;DHT22;42209;6.376;-10.782;2022-12-18T11:34:11;22.30;74.40
56300;DHT22;42209;6.376;-10.782;2022-12-18T11:36:58;22.60;76.10
56300;DHT22;42209;6.376;-10.782;2022-12-18T11:39:49;22.80;77.80
56300;DHT22;42209;6.376;-10.782;2022-12-18T11:42:53;22.70;69.70
56300;DHT22;42209;6.376;-10.782;2022-12-18T11:45:34;22.20;65.10
56300;DHT22;42209;6.376;-10.782;2022-12-18T11:51:01;21.80;68.90
56300;DHT22;42209;6.376;-10.782;2022-12-18T11:53:30;22.20;72.80
56300;DHT22;42209;6.376;-10.782;2022-12-18T12:13:02;22.20;73.10
56300;DHT22;42209;6.376;-10.782;2022-12-18T12:15:49;22.50;76.20
56300;DHT22;42209;6.376;-10.782;2022-12-18T12:18:43;22.80;75.90
56300;DHT22;42209;6.376;-10.782;2022-12-18T12:30:18;21.80;69.70
56300;DHT22;42209;6.376;-10.782;2022-12-18T12:35:49;22.60;75.80
56300;DHT22;42209;6.376;-10.782;2022-12-18T12:38:21;22.80;76.40
56300;DHT22;42209;6.376;-10.782;2022-12-18T12:41:01;22.60;67.80
56300;DHT22;42209;6.376;-10.782;2022-12-18T12:43:46;22.20;64.80
56300;DHT22;42209;6.376;-10.782;2022-12-18T12:46:19;21.80;63.20
56300;DHT22;42209;6.376;-10.782;2022-12-18T12:48:54;21.80;69.60
56300;DHT22;42209;6.376;-10.782;2022-12-18T12:51:33;22.20;73.20
56300;DHT22;42209;6.376;-10.782;2022-12-18T12:54:11;22.50;75.10
56300;DHT22;42209;6.376;-10.782;2022-12-18T12:59:39;22.60;68.00
56300;DHT22;42209;6.376;-10.782;2022-12-18T13:05:16;21.90;63.20
56300;DHT22;42209;6.376;-10.782;2022-12-18T13:10:30;22.30;73.50
56300;DHT22;42209;6.376;-10.782;2022-12-18T13:13:10;22.60;76.10
56300;DHT22;42209;6.376;-10.782;2022-12-18T13:15:40;22.70;70.20
56300;DHT22;42209;6.376;-10.782;2022-12-18T13:23:27;21.90;62.00
56300;DHT22;42209;6.376;-10.782;2022-12-18T13:26:42;21.70;61.40
56300;DHT22;42209;6.376;-10.782;2022-12-18T13:28:54;21.50;61.00
56300;DHT22;42209;6.376;-10.782;2022-12-18T13:36:55;22.50;71.40
56300;DHT22;42209;6.376;-10.782;2022-12-18T13:39:31;22.30;65.70
56300;DHT22;42209;6.376;-10.782;2022-12-18T13:44:39;21.80;62.90
56300;DHT22;42209;6.376;-10.782;2022-12-18T13:50:09;21.50;61.70
56300;DHT22;42209;6.376;-10.782;2022-12-18T13:52:39;21.50;61.20
56300;DHT22;42209;6.376;-10.782;2022-12-18T13:55:16;21.50;61.20
56300;DHT22;42209;6.376;-10.782;2022-12-18T13:57:45;21.60;67.20
56300;DHT22;42209;6.376;-10.782;2022-12-18T14:02:46;22.40;73.50
56300;DHT22;42209;6.376;-10.782;2022-12-18T14:07:53;22.10;64.10
56300;DHT22;42209;6.376;-10.782;2022-12-18T14:10:24;21.90;63.00
56300;DHT22;42209;6.376;-10.782;2022-12-18T14:13:28;21.70;62.00
56300;DHT22;42209;6.376;-10.782;2022-12-18T14:15:58;21.50;61.00
56300;DHT22;42209;6.376;-10.782;2022-12-18T14:18:55;21.50;60.90
56300;DHT22;42209;6.376;-10.782;2022-12-18T14:21:33;21.80;69.60
56300;DHT22;42209;6.376;-10.782;2022-12-18T14:24:20;22.30;73.70
56300;DHT22;42209;6.376;-10.782;2022-12-18T14:26:50;22.50;69.50
56300;DHT22;42209;6.376;-10.782;2022-12-18T14:29:20;22.20;64.10
56300;DHT22;42209;6.376;-10.782;2022-12-18T14:32:11;21.90;63.10
56300;DHT22;42209;6.376;-10.782;2022-12-18T14:37:21;21.70;66.10
56300;DHT22;42209;6.376;-10.782;2022-12-18T14:40:12;22.10;70.00
56300;DHT22;42209;6.376;-10.782;2022-12-18T14:42:42;22.50;72.80
56300;DHT22;42209;6.376;-10.782;2022-12-18T14:45:35;22.70;69.10
56300;DHT22;42209;6.376;-10.782;2022-12-18T14:51:05;22.00;61.30
56300;DHT22;42209;6.376;-10.782;2022-12-18T14:53:37;21.70;61.90
56300;DHT22;42209;6.376;-10.782;2022-12-18T14:56:21;22.00;68.80
56300;DHT22;42209;6.376;-10.782;2022-12-18T14:58:58;22.40;72.30
56300;DHT22;42209;6.376;-10.782;2022-12-18T15:01:29;22.70;74.50
56300;DHT22;42209;6.376;-10.782;2022-12-18T15:03:59;22.70;67.20
56300;DHT22;42209;6.376;-10.782;2022-12-18T15:06:36;22.40;63.10
56300;DHT22;42209;6.376;-10.782;2022-12-18T15:09:24;22.00;61.60
56300;DHT22;42209;6.376;-10.782;2022-12-18T15:11:58;21.80;61.30
56300;DHT22;42209;6.376;-10.782;2022-12-18T15:17:18;22.50;71.50
56300;DHT22;42209;6.376;-10.782;2022-12-18T15:19:51;22.70;74.00
56300;DHT22;42209;6.376;-10.782;2022-12-18T15:22:28;22.80;67.80
56300;DHT22;42209;6.376;-10.782;2022-12-18T15:24:58;22.40;63.50
56300;DHT22;42209;6.376;-10.782;2022-12-18T15:27:35;22.00;61.50
56300;DHT22;42209;6.376;-10.782;2022-12-18T15:32:39;21.80;66.80
56300;DHT22;42209;6.376;-10.782;2022-12-18T15:37:39;22.60;72.90
56300;DHT22;42209;6.376;-10.782;2022-12-18T15:40:12;22.80;71.30
56300;DHT22;42209;6.376;-10.782;2022-12-18T15:42:44;22.50;64.00
56300;DHT22;42209;6.376;-10.782;2022-12-18T15:45:14;22.10;61.70
56300;DHT22;42209;6.376;-10.782;2022-12-18T15:47:44;21.90;60.50
56300;DHT22;42209;6.376;-10.782;2022-12-18T15:50:12;21.80;63.50
56300;DHT22;42209;6.376;-10.782;2022-12-18T15:52:45;22.10;68.90
56300;DHT22;42209;6.376;-10.782;2022-12-18T15:55:19;22.50;71.50
56300;DHT22;42209;6.376;-10.782;2022-12-18T15:57:47;22.80;73.50
56300;DHT22;42209;6.376;-10.782;2022-12-18T16:00:16;22.90;69.20
56300;DHT22;42209;6.376;-10.782;2022-12-18T16:02:44;22.60;63.50
56300;DHT22;42209;6.376;-10.782;2022-12-18T16:05:16;22.20;61.40
56300;DHT22;42209;6.376;-10.782;2022-12-18T16:07:45;21.90;60.30
56300;DHT22;42209;6.376;-10.782;2022-12-18T16:10:14;21.80;60.70
56300;DHT22;42209;6.376;-10.782;2022-12-18T16:12:42;22.10;68.30
56300;DHT22;42209;6.376;-10.782;2022-12-18T16:15:13;22.40;71.20
56300;DHT22;42209;6.376;-10.782;2022-12-18T16:17:48;22.70;73.10
56300;DHT22;42209;6.376;-10.782;2022-12-18T16:20:21;22.80;67.40
56300;DHT22;42209;6.376;-10.782;2022-12-18T16:22:50;22.50;62.60
56300;DHT22;42209;6.376;-10.782;2022-12-18T16:25:24;22.20;61.00
56300;DHT22;42209;6.376;-10.782;2022-12-18T16:27:53;22.00;59.50
56300;DHT22;42209;6.376;-10.782;2022-12-18T16:30:27;21.80;59.10
56300;DHT22;42209;6.376;-10.782;2022-12-18T16:33:05;22.00;67.00
56300;DHT22;42209;6.376;-10.782;2022-12-18T16:35:34;22.50;70.40
56300;DHT22;42209;6.376;-10.782;2022-12-18T16:38:03;22.80;72.50
56300;DHT22;42209;6.376;-10.782;2022-12-18T16:40:32;22.90;66.90
56300;DHT22;42209;6.376;-10.782;2022-12-18T16:43:00;22.60;62.00
56300;DHT22;42209;6.376;-10.782;2022-12-18T16:45:29;22.20;60.20
56300;DHT22;42209;6.376;-10.782;2022-12-18T16:47:57;21.90;59.30
56300;DHT22;42209;6.376;-10.782;2022-12-18T16:50:26;21.80;58.70
56300;DHT22;42209;6.376;-10.782;2022-12-18T16:52:54;22.00;66.30
56300;DHT22;42209;6.376;-10.782;2022-12-18T16:55:22;22.40;69.80
56300;DHT22;42209;6.376;-10.782;2022-12-18T16:57:51;22.80;71.90
56300;DHT22;42209;6.376;-10.782;2022-12-18T17:00:20;22.90;70.00
56300;DHT22;42209;6.376;-10.782;2022-12-18T17:02:48;22.70;62.90
56300;DHT22;42209;6.376;-10.782;2022-12-18T17:05:17;22.30;60.50
56300;DHT22;42209;6.376;-10.782;2022-12-18T17:07:46;22.10;59.10
56300;DHT22;42209;6.376;-10.782;2022-12-18T17:10:17;21.90;57.90
56300;DHT22;42209;6.376;-10.782;2022-12-18T17:12:45;22.00;65.00
56300;DHT22;42209;6.376;-10.782;2022-12-18T17:15:13;22.40;68.40
56300;DHT22;42209;6.376;-10.782;2022-12-18T17:17:43;22.70;70.60
56300;DHT22;42209;6.376;-10.782;2022-12-18T17:20:11;23.00;71.90
56300;DHT22;42209;6.376;-10.782;2022-12-18T17:22:39;22.80;63.60
56300;DHT22;42209;6.376;-10.782;2022-12-18T17:25:08;22.40;60.60
56300;DHT22;42209;6.376;-10.782;2022-12-18T17:27:36;22.10;59.20
56300;DHT22;42209;6.376;-10.782;2022-12-18T17:30:05;21.90;58.40
56300;DHT22;42209;6.376;-10.782;2022-12-18T17:32:34;21.90;62.50
56300;DHT22;42209;6.376;-10.782;2022-12-18T17:35:02;22.30;68.10
56300;DHT22;42209;6.376;-10.782;2022-12-18T17:37:34;22.70;71.80
56300;DHT22;42209;6.376;-10.782;2022-12-18T17:40:03;22.90;72.00
56300;DHT22;42209;6.376;-10.782;2022-12-18T17:42:31;22.80;63.60
56300;DHT22;42209;6.376;-10.782;2022-12-18T17:45:00;22.40;60.60
56300;DHT22;42209;6.376;-10.782;2022-12-18T17:47:28;22.00;59.20
56300;DHT22;42209;6.376;-10.782;2022-12-18T17:49:57;21.80;58.40
56300;DHT22;42209;6.376;-10.782;2022-12-18T17:52:25;22.00;65.80
56300;DHT22;42209;6.376;-10.782;2022-12-18T17:54:53;22.40;68.90
56300;DHT22;42209;6.376;-10.782;2022-12-18T17:57:21;22.70;71.00
56300;DHT22;42209;6.376;-10.782;2022-12-18T17:59:50;22.90;69.10
56300;DHT22;42209;6.376;-10.782;2022-12-18T18:02:19;22.70;62.00